createdAt,value
2023-03-16T00:00:25.483Z,68.59
2023-03-16T00:01:25.171Z,68.90
2023-03-16T00:02:25.272Z,69.07
2023-03-16T00:03:25.183Z,68.48
2023-03-16T00:04:25.179Z,68.76
2023-03-16T00:05:25.189Z,69.17
2023-03-16T00:06:25.835Z,69.07
2023-03-16T00:07:25.110Z,68.76
2023-03-16T00:08:25.119Z,68.86
2023-03-16T00:09:25.101Z,68.76
2023-03-16T00:10:26.376Z,68.65
2023-03-16T00:11:25.108Z,68.24
2023-03-16T00:12:25.063Z,68.34
2023-03-16T00:13:25.111Z,68.13
2023-03-16T00:14:25.056Z,67.93
2023-03-16T00:15:25.079Z,67.72
2023-03-16T00:16:25.115Z,68.13
2023-03-16T00:17:25.006Z,68.13
2023-03-16T00:18:25.007Z,67.82
2023-03-16T00:19:25.995Z,67.61
2023-03-16T00:20:25.456Z,67.82
2023-03-16T00:21:24.998Z,67.44
2023-03-16T00:22:24.953Z,68.07
2023-03-16T00:23:25.936Z,67.89
2023-03-16T00:24:24.935Z,68.72
2023-03-16T00:25:24.933Z,69.10
2023-03-16T00:26:24.945Z,69.10
2023-03-16T00:27:24.913Z,69.21
2023-03-16T00:28:24.908Z,68.69
2023-03-16T00:29:24.867Z,68.62
2023-03-16T00:30:24.931Z,68.96
2023-03-16T00:31:25.952Z,69.17
2023-03-16T00:32:24.901Z,69.89
2023-03-16T00:33:24.871Z,70.00
2023-03-16T00:34:24.845Z,70.10
2023-03-16T00:35:24.837Z,70.62
2023-03-16T00:36:24.786Z,70.54
2023-03-16T00:37:24.878Z,70.65
2023-03-16T00:38:24.793Z,71.14
2023-03-16T00:39:25.805Z,71.28
2023-03-16T00:40:24.854Z,71.03
2023-03-16T00:41:24.750Z,71.03
2023-03-16T00:42:24.734Z,70.79
2023-03-16T00:43:25.714Z,70.69
2023-03-16T00:44:25.716Z,70.59
2023-03-16T00:45:24.741Z,70.17
2023-03-16T00:46:24.766Z,70.07
2023-03-16T00:47:24.664Z,69.68
2023-03-16T00:48:25.674Z,69.68
2023-03-16T00:49:25.666Z,69.58
2023-03-16T00:50:24.729Z,69.89
2023-03-16T00:51:25.627Z,69.68
2023-03-16T00:52:24.662Z,69.89
2023-03-16T00:53:25.638Z,70.10
2023-03-16T00:54:24.627Z,70.51
2023-03-16T00:55:24.579Z,70.41
2023-03-16T00:56:25.594Z,70.51
2023-03-16T00:57:24.641Z,70.41
2023-03-16T00:58:24.599Z,69.96
2023-03-16T00:59:24.668Z,70.17
2023-03-16T01:00:24.568Z,69.96
2023-03-16T01:01:24.615Z,69.76
2023-03-16T01:02:25.541Z,69.45
2023-03-16T01:03:24.555Z,69.34
2023-03-16T01:04:24.501Z,69.45
2023-03-16T01:05:24.526Z,69.13
2023-03-16T01:06:24.478Z,68.93
2023-03-16T01:07:24.474Z,69.13
2023-03-16T01:08:24.460Z,69.34
2023-03-16T01:09:24.480Z,69.45
2023-03-16T01:10:24.434Z,69.34
2023-03-16T01:11:25.438Z,69.34
2023-03-16T01:12:25.408Z,69.65
2023-03-16T01:13:25.397Z,69.24
2023-03-16T01:14:24.403Z,69.24
2023-03-16T01:15:24.398Z,69.03
2023-03-16T01:16:24.450Z,69.13
2023-03-16T01:17:25.354Z,69.13
2023-03-16T01:18:24.369Z,69.24
2023-03-16T01:19:24.347Z,69.13
2023-03-16T01:20:25.524Z,69.34
2023-03-16T01:21:24.337Z,69.24
2023-03-16T01:22:24.303Z,69.34
2023-03-16T01:23:24.310Z,69.24
2023-03-16T01:24:24.305Z,69.03
2023-03-16T01:25:25.272Z,68.72
2023-03-16T01:26:24.278Z,69.13
2023-03-16T01:27:25.315Z,69.13
2023-03-16T01:28:24.246Z,68.51
2023-03-16T01:29:25.214Z,69.24
2023-03-16T01:30:25.684Z,69.06
2023-03-16T01:31:25.232Z,69.68
2023-03-16T01:32:24.249Z,69.37
2023-03-16T01:33:24.244Z,69.37
2023-03-16T01:34:25.159Z,69.89
2023-03-16T01:35:24.198Z,69.82
2023-03-16T01:36:24.182Z,69.89
2023-03-16T01:37:24.143Z,70.44
2023-03-16T01:38:24.141Z,70.34
2023-03-16T01:39:24.159Z,70.44
2023-03-16T01:40:24.124Z,70.65
2023-03-16T01:41:24.113Z,71.28
2023-03-16T01:42:24.088Z,71.07
2023-03-16T01:43:24.097Z,70.93
2023-03-16T01:44:24.051Z,70.83
2023-03-16T01:45:24.071Z,70.41
2023-03-16T01:46:25.161Z,70.62
2023-03-16T01:47:24.103Z,70.51
2023-03-16T01:48:24.970Z,70.00
2023-03-16T01:49:24.011Z,70.07
2023-03-16T01:50:24.001Z,70.17
2023-03-16T01:51:25.038Z,69.96
2023-03-16T01:52:23.977Z,69.89
2023-03-16T01:53:23.985Z,69.96
2023-03-16T01:54:23.963Z,69.76
2023-03-16T01:55:23.966Z,69.37
2023-03-16T01:56:23.944Z,69.65
2023-03-16T01:57:23.943Z,69.86
2023-03-16T01:58:23.904Z,69.86
2023-03-16T01:59:23.919Z,69.86
2023-03-16T02:00:23.912Z,69.76
2023-03-16T02:01:23.934Z,69.34
2023-03-16T02:02:23.909Z,69.45
2023-03-16T02:03:23.849Z,69.45
2023-03-16T02:04:23.839Z,69.45
2023-03-16T02:05:23.831Z,69.24
2023-03-16T02:06:23.830Z,69.24
2023-03-16T02:07:23.820Z,69.24
2023-03-16T02:08:23.830Z,69.17
2023-03-16T02:09:23.782Z,69.48
2023-03-16T02:10:24.781Z,69.79
2023-03-16T02:11:23.795Z,69.79
2023-03-16T02:12:23.796Z,70.10
2023-03-16T02:13:23.798Z,70.20
2023-03-16T02:14:23.763Z,70.20
2023-03-16T02:15:23.724Z,70.10
2023-03-16T02:16:24.705Z,70.10
2023-03-16T02:17:24.762Z,70.34
2023-03-16T02:18:23.706Z,70.41
2023-03-16T02:19:23.696Z,70.31
2023-03-16T02:20:23.724Z,70.10
2023-03-16T02:21:24.646Z,70.41
2023-03-16T02:22:23.658Z,70.31
2023-03-16T02:23:23.640Z,70.20
2023-03-16T02:24:23.666Z,70.10
2023-03-16T02:25:23.646Z,70.23
2023-03-16T02:26:23.594Z,70.44
2023-03-16T02:27:23.627Z,70.54
2023-03-16T02:28:24.591Z,70.23
2023-03-16T02:29:23.614Z,70.54
2023-03-16T02:30:23.554Z,70.97
2023-03-16T02:31:23.570Z,71.07
2023-03-16T02:32:23.660Z,70.97
2023-03-16T02:33:23.519Z,70.97
2023-03-16T02:34:23.552Z,70.86
2023-03-16T02:35:23.605Z,70.75
2023-03-16T02:36:24.496Z,70.65
2023-03-16T02:37:23.498Z,70.68
2023-03-16T02:38:23.478Z,71.00
2023-03-16T02:39:23.524Z,71.31
2023-03-16T02:40:23.475Z,71.31
2023-03-16T02:41:23.432Z,71.31
2023-03-16T02:42:23.433Z,71.31
2023-03-16T02:43:23.472Z,71.41
2023-03-16T02:44:23.418Z,71.20
2023-03-16T02:45:23.426Z,71.51
2023-03-16T02:46:23.514Z,71.86
2023-03-16T02:47:24.414Z,71.83
2023-03-16T02:48:24.376Z,71.62
2023-03-16T02:49:23.349Z,71.93
2023-03-16T02:50:23.388Z,71.51
2023-03-16T02:51:23.329Z,71.28
2023-03-16T02:52:24.332Z,71.07
2023-03-16T02:53:23.363Z,70.97
2023-03-16T02:54:23.315Z,70.68
2023-03-16T02:55:23.289Z,70.68
2023-03-16T02:56:23.266Z,70.86
2023-03-16T02:57:23.327Z,70.97
2023-03-16T02:58:23.248Z,70.79
2023-03-16T02:59:23.251Z,70.44
2023-03-16T03:00:23.261Z,70.86
2023-03-16T03:01:23.241Z,70.54
2023-03-16T03:02:23.203Z,70.34
2023-03-16T03:03:23.240Z,70.44
2023-03-16T03:04:23.221Z,70.86
2023-03-16T03:05:23.225Z,70.65
2023-03-16T03:06:24.174Z,70.86
2023-03-16T03:07:24.152Z,70.44
2023-03-16T03:08:24.132Z,70.51
2023-03-16T03:09:23.141Z,70.51
2023-03-16T03:10:24.145Z,70.10
2023-03-16T03:11:23.120Z,70.31
2023-03-16T03:12:23.125Z,70.10
2023-03-16T03:13:23.086Z,70.13
2023-03-16T03:14:23.075Z,70.23
2023-03-16T03:15:23.081Z,69.92
2023-03-16T03:16:23.135Z,70.20
2023-03-16T03:17:23.084Z,70.54
2023-03-16T03:18:23.061Z,70.65
2023-03-16T03:19:23.086Z,70.34
2023-03-16T03:20:24.007Z,70.20
2023-03-16T03:21:23.032Z,70.41
2023-03-16T03:22:23.027Z,70.20
2023-03-16T03:23:22.986Z,70.20
2023-03-16T03:24:23.958Z,69.89
2023-03-16T03:25:23.966Z,69.89
2023-03-16T03:26:23.973Z,69.89
2023-03-16T03:27:23.012Z,69.79
2023-03-16T03:28:22.960Z,69.61
2023-03-16T03:29:22.935Z,69.40
2023-03-16T03:30:22.900Z,69.71
2023-03-16T03:31:23.039Z,70.17
2023-03-16T03:32:23.919Z,70.68
2023-03-16T03:33:22.935Z,70.89
2023-03-16T03:34:22.865Z,71.00
2023-03-16T03:35:22.893Z,71.00
2023-03-16T03:36:22.988Z,71.20
2023-03-16T03:37:22.834Z,70.86
2023-03-16T03:38:22.832Z,70.75
2023-03-16T03:39:22.823Z,70.86
2023-03-16T03:40:22.828Z,70.54
2023-03-16T03:41:22.802Z,70.65
2023-03-16T03:42:22.838Z,70.23
2023-03-16T03:43:22.757Z,70.54
2023-03-16T03:44:23.759Z,70.03
2023-03-16T03:45:22.741Z,70.44
2023-03-16T03:46:22.898Z,70.23
2023-03-16T03:47:22.821Z,70.54
2023-03-16T03:48:22.742Z,70.86
2023-03-16T03:49:22.718Z,70.65
2023-03-16T03:50:22.678Z,70.65
2023-03-16T03:51:23.653Z,70.54
2023-03-16T03:52:23.658Z,70.54
2023-03-16T03:53:22.701Z,70.13
2023-03-16T03:54:22.700Z,70.41
2023-03-16T03:55:22.694Z,70.51
2023-03-16T03:56:22.627Z,70.20
2023-03-16T03:57:22.628Z,70.10
2023-03-16T03:58:22.644Z,70.10
2023-03-16T03:59:22.579Z,69.68
2023-03-16T04:00:22.581Z,69.71
2023-03-16T04:01:22.592Z,69.61
2023-03-16T04:02:22.693Z,69.92
2023-03-16T04:03:23.654Z,69.92
2023-03-16T04:04:23.564Z,69.92
2023-03-16T04:05:22.541Z,69.92
2023-03-16T04:06:22.514Z,70.03
2023-03-16T04:07:22.487Z,69.89
2023-03-16T04:08:22.537Z,69.79
2023-03-16T04:09:30.081Z,69.45
2023-03-16T04:10:22.494Z,69.27
2023-03-16T04:11:22.460Z,69.48
2023-03-16T04:12:22.440Z,69.68
2023-03-16T04:13:22.459Z,69.58
2023-03-16T04:14:22.430Z,69.71
2023-03-16T04:15:22.417Z,69.89
2023-03-16T04:16:22.437Z,69.68
2023-03-16T04:17:22.400Z,69.71
2023-03-16T04:18:22.392Z,69.68
2023-03-16T04:19:22.377Z,69.92
2023-03-16T04:20:22.408Z,69.82
2023-03-16T04:21:22.377Z,69.92
2023-03-16T04:22:22.351Z,69.92
2023-03-16T04:23:22.331Z,70.23
2023-03-16T04:24:22.376Z,70.13
2023-03-16T04:25:22.309Z,70.00
2023-03-16T04:26:23.303Z,69.89
2023-03-16T04:27:23.340Z,69.92
2023-03-16T04:28:22.266Z,70.00
2023-03-16T04:29:23.259Z,70.00
2023-03-16T04:30:22.297Z,70.00
2023-03-16T04:31:23.357Z,69.68
2023-03-16T04:32:23.245Z,70.10
2023-03-16T04:33:22.215Z,69.89
2023-03-16T04:34:22.187Z,70.00
2023-03-16T04:35:22.240Z,70.00
2023-03-16T04:36:22.222Z,69.89
2023-03-16T04:37:23.212Z,69.68
2023-03-16T04:38:22.179Z,69.79
2023-03-16T04:39:22.191Z,69.68
2023-03-16T04:40:22.165Z,69.51
2023-03-16T04:41:23.139Z,69.48
2023-03-16T04:42:22.136Z,69.30
2023-03-16T04:43:22.117Z,69.79
2023-03-16T04:44:22.100Z,69.61
2023-03-16T04:45:23.096Z,69.82
2023-03-16T04:46:22.120Z,69.92
2023-03-16T04:47:22.080Z,69.89
2023-03-16T04:48:22.088Z,69.61
2023-03-16T04:49:22.034Z,69.51
2023-03-16T04:50:22.056Z,69.40
2023-03-16T04:51:23.015Z,69.96
2023-03-16T04:52:21.999Z,70.06
2023-03-16T04:53:22.041Z,70.17
2023-03-16T04:54:21.995Z,70.06
2023-03-16T04:55:21.964Z,70.17
2023-03-16T04:56:21.993Z,70.27
2023-03-16T04:57:21.944Z,70.40
2023-03-16T04:58:21.993Z,70.68
2023-03-16T04:59:22.969Z,70.79
2023-03-16T05:00:21.925Z,70.68
2023-03-16T05:01:21.926Z,70.48
2023-03-16T05:02:21.907Z,70.58
2023-03-16T05:03:21.875Z,70.48
2023-03-16T05:04:22.970Z,70.58
2023-03-16T05:05:21.930Z,70.58
2023-03-16T05:06:21.866Z,70.37
2023-03-16T05:07:21.842Z,70.44
2023-03-16T05:08:21.856Z,70.34
2023-03-16T05:09:21.833Z,70.03
2023-03-16T05:10:21.857Z,70.13
2023-03-16T05:11:21.832Z,70.27
2023-03-16T05:12:21.817Z,70.03
2023-03-16T05:13:21.818Z,69.92
2023-03-16T05:14:21.794Z,69.51
2023-03-16T05:15:21.780Z,69.82
2023-03-16T05:16:22.834Z,69.92
2023-03-16T05:17:21.719Z,70.23
2023-03-16T05:18:22.752Z,70.03
2023-03-16T05:19:21.724Z,70.03
2023-03-16T05:20:21.741Z,70.03
2023-03-16T05:21:21.753Z,69.82
2023-03-16T05:22:21.694Z,69.61
2023-03-16T05:23:21.693Z,69.51
2023-03-16T05:24:21.677Z,69.30
2023-03-16T05:25:21.661Z,69.51
2023-03-16T05:26:21.640Z,69.61
2023-03-16T05:27:21.677Z,69.61
2023-03-16T05:28:21.600Z,69.40
2023-03-16T05:29:21.620Z,68.99
2023-03-16T05:30:21.627Z,69.09
2023-03-16T05:31:21.641Z,69.17
2023-03-16T05:32:21.589Z,69.09
2023-03-16T05:33:21.619Z,69.09
2023-03-16T05:34:21.562Z,69.20
2023-03-16T05:35:23.708Z,68.96
2023-03-16T05:36:21.543Z,69.30
2023-03-16T05:37:21.545Z,68.68
2023-03-16T05:38:21.523Z,69.06
2023-03-16T05:39:21.533Z,69.06
2023-03-16T05:40:21.479Z,68.99
2023-03-16T05:41:21.503Z,69.17
2023-03-16T05:42:21.500Z,69.06
2023-03-16T05:43:21.472Z,69.17
2023-03-16T05:44:22.457Z,68.85
2023-03-16T05:45:21.459Z,69.51
2023-03-16T05:46:21.446Z,69.37
2023-03-16T05:47:22.456Z,69.37
2023-03-16T05:48:21.399Z,69.37
2023-03-16T05:49:21.440Z,69.37
2023-03-16T05:50:22.384Z,69.37
2023-03-16T05:51:22.403Z,69.58
2023-03-16T05:52:21.355Z,69.58
2023-03-16T05:53:21.344Z,69.48
2023-03-16T05:54:22.364Z,69.55
2023-03-16T05:55:21.336Z,69.45
2023-03-16T05:56:22.336Z,69.37
2023-03-16T05:57:21.313Z,69.27
2023-03-16T05:58:21.299Z,69.27
2023-03-16T05:59:21.282Z,69.55
2023-03-16T06:00:21.336Z,69.45
2023-03-16T06:01:21.299Z,69.45
2023-03-16T06:02:21.344Z,69.24
2023-03-16T06:03:21.277Z,69.13
2023-03-16T06:04:21.248Z,68.93
2023-03-16T06:05:21.244Z,69.24
2023-03-16T06:06:21.193Z,69.24
2023-03-16T06:07:21.220Z,69.55
2023-03-16T06:08:21.190Z,69.48
2023-03-16T06:09:21.213Z,69.48
2023-03-16T06:10:21.197Z,69.68
2023-03-16T06:11:21.137Z,69.27
2023-03-16T06:12:21.146Z,69.30
2023-03-16T06:13:21.150Z,69.92
2023-03-16T06:14:21.165Z,70.03
2023-03-16T06:15:21.124Z,70.23
2023-03-16T06:16:21.208Z,70.54
2023-03-16T06:17:21.116Z,70.54
2023-03-16T06:18:21.089Z,70.65
2023-03-16T06:19:21.053Z,70.51
2023-03-16T06:20:21.107Z,70.51
2023-03-16T06:21:22.038Z,70.41
2023-03-16T06:22:21.138Z,70.28
2023-03-16T06:23:21.021Z,70.31
2023-03-16T06:24:21.003Z,70.17
2023-03-16T06:25:21.998Z,69.76
2023-03-16T06:26:21.030Z,69.76
2023-03-16T06:27:20.981Z,69.52
2023-03-16T06:28:20.950Z,69.31
2023-03-16T06:29:20.974Z,68.90
2023-03-16T06:30:20.954Z,68.34
2023-03-16T06:31:21.021Z,67.93
2023-03-16T06:32:20.947Z,68.24
2023-03-16T06:33:21.931Z,68.34
2023-03-16T06:34:20.933Z,68.03
2023-03-16T06:35:20.897Z,68.03
2023-03-16T06:36:20.890Z,68.31
2023-03-16T06:37:20.872Z,67.48
2023-03-16T06:38:20.867Z,67.58
2023-03-16T06:39:20.884Z,66.86
2023-03-16T06:40:20.840Z,67.24
2023-03-16T06:41:20.837Z,67.35
2023-03-16T06:42:20.837Z,66.93
2023-03-16T06:43:20.828Z,66.72
2023-03-16T06:44:20.787Z,67.35
2023-03-16T06:45:20.800Z,67.45
2023-03-16T06:46:20.809Z,66.52
2023-03-16T06:47:20.767Z,66.83
2023-03-16T06:48:20.764Z,66.41
2023-03-16T06:49:20.738Z,66.62
2023-03-16T06:50:20.730Z,66.72
2023-03-16T06:51:20.743Z,66.72
2023-03-16T06:52:21.745Z,66.62
2023-03-16T06:53:20.686Z,66.00
2023-03-16T06:54:20.677Z,65.90
2023-03-16T06:55:20.700Z,66.31
2023-03-16T06:56:20.647Z,66.21
2023-03-16T06:57:20.677Z,65.77
2023-03-16T06:58:20.650Z,66.69
2023-03-16T06:59:20.627Z,65.66
2023-03-16T07:00:20.652Z,65.63
2023-03-16T07:01:20.649Z,65.94
2023-03-16T07:02:20.587Z,65.53
2023-03-16T07:03:21.632Z,65.22
2023-03-16T07:04:20.670Z,65.42
2023-03-16T07:05:20.589Z,65.53
2023-03-16T07:06:21.633Z,65.19
2023-03-16T07:07:20.533Z,65.19
2023-03-16T07:08:21.535Z,64.87
2023-03-16T07:09:21.525Z,64.74
2023-03-16T07:10:20.532Z,63.74
2023-03-16T07:11:20.528Z,64.02
2023-03-16T07:12:21.474Z,64.02
2023-03-16T07:13:21.480Z,63.81
2023-03-16T07:14:21.456Z,63.57
2023-03-16T07:15:20.481Z,63.78
2023-03-16T07:16:21.485Z,63.57
2023-03-16T07:17:21.429Z,63.78
2023-03-16T07:18:20.413Z,63.26
2023-03-16T07:19:20.415Z,63.44
2023-03-16T07:20:22.236Z,63.54
2023-03-16T07:21:20.398Z,62.93
2023-03-16T07:22:20.380Z,62.93
2023-03-16T07:23:20.374Z,62.48
2023-03-16T07:24:20.340Z,62.27
2023-03-16T07:25:20.340Z,62.07
2023-03-16T07:26:20.350Z,62.04
2023-03-16T07:27:21.318Z,61.63
2023-03-16T07:28:20.334Z,61.32
2023-03-16T07:29:21.298Z,61.11
2023-03-16T07:30:20.294Z,61.63
2023-03-16T07:31:20.444Z,61.08
2023-03-16T07:32:20.289Z,60.95
2023-03-16T07:33:20.281Z,60.23
2023-03-16T07:34:20.261Z,60.02
2023-03-16T07:35:20.250Z,60.13
2023-03-16T07:36:21.327Z,60.02
2023-03-16T07:37:25.257Z,60.02
2023-03-16T07:38:21.200Z,60.02
2023-03-16T07:39:20.183Z,60.13
2023-03-16T07:40:21.165Z,60.13
2023-03-16T07:41:20.204Z,59.72
2023-03-16T07:42:20.205Z,59.51
2023-03-16T07:43:20.163Z,59.72
2023-03-16T07:44:20.168Z,59.41
2023-03-16T07:45:20.147Z,59.92
2023-03-16T07:46:20.183Z,59.38
2023-03-16T07:47:20.153Z,59.17
2023-03-16T07:48:20.074Z,59.38
2023-03-16T07:49:20.166Z,58.65
2023-03-16T07:50:20.069Z,58.42
2023-03-16T07:51:21.069Z,58.22
2023-03-16T07:52:20.057Z,57.60
2023-03-16T07:53:20.064Z,57.18
2023-03-16T07:54:20.012Z,57.60
2023-03-16T07:55:20.067Z,57.91
2023-03-16T07:56:20.007Z,57.26
2023-03-16T07:57:19.997Z,57.39
2023-03-16T07:58:20.020Z,57.68
2023-03-16T07:59:21.053Z,57.68
2023-03-16T08:00:20.052Z,56.72
2023-03-16T08:01:19.971Z,56.52
2023-03-16T08:02:20.028Z,56.21
2023-03-16T08:03:19.972Z,56.93
2023-03-16T08:04:19.918Z,55.59
2023-03-16T08:05:19.925Z,55.69
2023-03-16T08:06:19.962Z,55.77
2023-03-16T08:07:19.943Z,55.69
2023-03-16T08:08:19.873Z,55.87
2023-03-16T08:09:19.904Z,55.98
2023-03-16T08:10:19.885Z,55.87
2023-03-16T08:11:19.830Z,55.36
2023-03-16T08:12:20.823Z,55.46
2023-03-16T08:13:20.827Z,55.64
2023-03-16T08:14:19.836Z,55.66
2023-03-16T08:15:19.806Z,56.29
2023-03-16T08:16:22.021Z,55.95
2023-03-16T08:17:19.849Z,55.54
2023-03-16T08:18:19.770Z,55.33
2023-03-16T08:19:19.787Z,54.82
2023-03-16T08:20:20.766Z,55.02
2023-03-16T08:21:19.774Z,54.72
2023-03-16T08:22:19.724Z,54.79
2023-03-16T08:23:19.763Z,54.07
2023-03-16T08:24:19.739Z,54.17
2023-03-16T08:25:20.757Z,54.05
2023-03-16T08:26:19.673Z,54.17
2023-03-16T08:27:19.697Z,53.97
2023-03-16T08:28:19.656Z,54.79
2023-03-16T08:29:20.652Z,54.97
2023-03-16T08:30:19.682Z,54.25
2023-03-16T08:31:19.734Z,54.25
2023-03-16T08:32:19.612Z,54.77
2023-03-16T08:33:22.581Z,53.85
2023-03-16T08:34:19.597Z,54.43
2023-03-16T08:35:19.594Z,53.94
2023-03-16T08:36:19.600Z,53.94
2023-03-16T08:37:21.435Z,54.15
2023-03-16T08:38:19.587Z,53.53
2023-03-16T08:39:19.571Z,53.00
2023-03-16T08:40:19.603Z,53.33
2023-03-16T08:41:19.527Z,53.02
2023-03-16T08:42:20.495Z,53.12
2023-03-16T08:43:19.539Z,53.12
2023-03-16T08:44:19.493Z,53.02
2023-03-16T08:45:19.499Z,53.20
2023-03-16T08:46:19.505Z,53.10
2023-03-16T08:47:19.459Z,53.20
2023-03-16T08:48:19.445Z,52.17
2023-03-16T08:49:19.421Z,51.76
2023-03-16T08:50:19.431Z,52.79
2023-03-16T08:51:19.433Z,52.59
2023-03-16T08:52:19.380Z,52.38
2023-03-16T08:53:19.388Z,52.38
2023-03-16T08:54:19.385Z,52.81
2023-03-16T08:55:19.392Z,52.71
2023-03-16T08:56:19.358Z,51.97
2023-03-16T08:57:19.379Z,52.46
2023-03-16T08:58:19.323Z,52.07
2023-03-16T08:59:29.054Z,52.38
2023-03-16T09:00:20.331Z,52.46
2023-03-16T09:01:20.425Z,52.46
2023-03-16T09:02:19.305Z,52.02
2023-03-16T09:03:19.277Z,51.92
2023-03-16T09:04:19.320Z,51.72
2023-03-16T09:05:19.260Z,51.61
2023-03-16T09:06:19.245Z,51.72
2023-03-16T09:07:19.265Z,51.69
2023-03-16T09:08:19.238Z,51.07
2023-03-16T09:09:20.217Z,50.38
2023-03-16T09:10:19.180Z,51.31
2023-03-16T09:11:19.191Z,50.56
2023-03-16T09:12:19.195Z,50.97
2023-03-16T09:13:20.203Z,51.39
2023-03-16T09:14:20.144Z,51.05
2023-03-16T09:15:20.137Z,51.15
2023-03-16T09:16:20.237Z,50.85
2023-03-16T09:17:19.114Z,50.97
2023-03-16T09:18:19.106Z,50.46
2023-03-16T09:19:20.122Z,50.15
2023-03-16T09:20:26.505Z,50.44
2023-03-16T09:21:20.099Z,51.39
2023-03-16T09:22:19.071Z,50.36
2023-03-16T09:23:20.050Z,50.64
2023-03-16T09:24:19.043Z,50.34
2023-03-16T09:25:19.062Z,49.82
2023-03-16T09:26:19.013Z,50.02
2023-03-16T09:27:19.096Z,49.80
2023-03-16T09:28:21.009Z,47.75
2023-03-16T09:29:19.017Z,48.69
2023-03-16T09:30:18.989Z,49.21
2023-03-16T09:31:20.115Z,47.77
2023-03-16T09:32:18.958Z,48.00
2023-03-16T09:33:18.949Z,48.21
2023-03-16T09:34:18.920Z,48.08
2023-03-16T09:35:18.945Z,48.06
2023-03-16T09:36:19.070Z,48.59
2023-03-16T09:37:18.915Z,47.97
2023-03-16T09:38:18.881Z,47.67
2023-03-16T09:39:18.884Z,47.56
2023-03-16T09:40:18.872Z,47.56
2023-03-16T09:41:18.903Z,48.47
2023-03-16T09:42:19.860Z,47.85
2023-03-16T09:43:18.854Z,47.36
2023-03-16T09:44:19.849Z,47.96
2023-03-16T09:45:18.813Z,47.46
2023-03-16T09:46:19.111Z,47.46
2023-03-16T09:47:19.892Z,47.75
2023-03-16T09:48:18.773Z,46.62
2023-03-16T09:49:18.919Z,46.93
2023-03-16T09:50:18.846Z,47.55
2023-03-16T09:51:18.853Z,46.85
2023-03-16T09:52:18.752Z,47.26
2023-03-16T09:53:18.876Z,47.36
2023-03-16T09:54:18.867Z,47.03
2023-03-16T09:55:18.720Z,47.24
2023-03-16T09:56:18.701Z,46.21
2023-03-16T09:57:18.698Z,46.31
2023-03-16T09:58:18.675Z,46.81
2023-03-16T09:59:18.659Z,47.13
2023-03-16T10:00:19.642Z,46.19
2023-03-16T10:01:18.685Z,46.39
2023-03-16T10:02:18.629Z,45.27
2023-03-16T10:03:19.638Z,45.29
2023-03-16T10:04:19.760Z,46.39
2023-03-16T10:05:19.612Z,46.42
2023-03-16T10:06:18.582Z,46.50
2023-03-16T10:07:18.597Z,46.48
2023-03-16T10:08:18.553Z,45.76
2023-03-16T10:09:18.550Z,45.15
2023-03-16T10:10:18.541Z,45.45
2023-03-16T10:11:18.536Z,45.53
2023-03-16T10:12:18.553Z,44.92
2023-03-16T10:13:18.593Z,44.79
2023-03-16T10:14:18.532Z,45.43
2023-03-16T10:15:18.525Z,45.72
2023-03-16T10:16:18.510Z,46.23
2023-03-16T10:17:19.440Z,46.00
2023-03-16T10:18:19.842Z,45.08
2023-03-16T10:19:18.456Z,45.29
2023-03-16T10:20:19.441Z,44.67
2023-03-16T10:21:19.431Z,44.79
2023-03-16T10:22:18.394Z,44.79
2023-03-16T10:23:18.399Z,44.38
2023-03-16T10:24:18.402Z,44.00
2023-03-16T10:25:18.371Z,45.33
2023-03-16T10:26:18.357Z,45.02
2023-03-16T10:27:19.365Z,44.59
2023-03-16T10:28:18.365Z,44.38
2023-03-16T10:29:18.373Z,44.37
2023-03-16T10:30:18.319Z,45.10
2023-03-16T10:31:18.326Z,45.08
2023-03-16T10:32:18.306Z,45.10
2023-03-16T10:33:18.383Z,44.26
2023-03-16T10:34:19.272Z,44.06
2023-03-16T10:35:18.267Z,43.53
2023-03-16T10:36:18.289Z,44.35
2023-03-16T10:37:18.286Z,43.94
2023-03-16T10:38:18.225Z,43.65
2023-03-16T10:39:19.215Z,43.94
2023-03-16T10:40:19.213Z,44.14
2023-03-16T10:41:19.233Z,44.76
2023-03-16T10:42:18.206Z,45.06
2023-03-16T10:43:18.185Z,45.37
2023-03-16T10:44:18.173Z,45.37
2023-03-16T10:45:19.179Z,44.35
2023-03-16T10:46:18.313Z,44.55
2023-03-16T10:47:18.215Z,44.37
2023-03-16T10:48:19.112Z,44.67
2023-03-16T10:49:18.146Z,45.18
2023-03-16T10:50:18.112Z,44.57
2023-03-16T10:51:18.102Z,44.47
2023-03-16T10:52:18.079Z,45.29
2023-03-16T10:53:18.091Z,45.29
2023-03-16T10:54:18.060Z,44.57
2023-03-16T10:55:18.052Z,44.18
2023-03-16T10:56:18.044Z,45.10
2023-03-16T10:57:18.025Z,45.08
2023-03-16T10:58:18.034Z,43.47
2023-03-16T10:59:18.035Z,44.37
2023-03-16T11:00:17.999Z,43.84
2023-03-16T11:01:18.120Z,44.35
2023-03-16T11:02:17.987Z,43.73
2023-03-16T11:03:17.985Z,44.04
2023-03-16T11:04:18.084Z,44.35
2023-03-16T11:05:17.986Z,44.24
2023-03-16T11:06:17.931Z,44.04
2023-03-16T11:07:17.906Z,43.94
2023-03-16T11:08:17.940Z,43.53
2023-03-16T11:09:17.890Z,43.94
2023-03-16T11:10:17.911Z,44.45
2023-03-16T11:11:17.912Z,43.94
2023-03-16T11:12:17.860Z,42.75
2023-03-16T11:13:17.855Z,44.18
2023-03-16T11:14:17.857Z,44.38
2023-03-16T11:15:25.772Z,44.26
2023-03-16T11:16:18.867Z,44.45
2023-03-16T11:17:17.978Z,43.84
2023-03-16T11:18:17.816Z,42.90
2023-03-16T11:19:17.806Z,41.97
2023-03-16T11:20:17.967Z,42.38
2023-03-16T11:21:17.789Z,43.82
2023-03-16T11:22:17.774Z,44.12
2023-03-16T11:23:18.753Z,43.73
2023-03-16T11:24:18.740Z,42.71
2023-03-16T11:25:17.727Z,42.38
2023-03-16T11:26:17.735Z,43.41
2023-03-16T11:27:17.697Z,42.49
2023-03-16T11:28:17.701Z,41.97
2023-03-16T11:29:17.746Z,43.10
2023-03-16T11:30:17.779Z,42.67
2023-03-16T11:31:17.716Z,42.59
2023-03-16T11:32:17.636Z,42.47
2023-03-16T11:33:17.676Z,42.67
2023-03-16T11:34:17.647Z,42.14
2023-03-16T11:35:17.621Z,41.42
2023-03-16T11:36:25.484Z,42.65
2023-03-16T11:37:17.607Z,42.04
2023-03-16T11:38:17.580Z,41.35
2023-03-16T11:39:17.576Z,41.33
2023-03-16T11:40:18.603Z,41.83
2023-03-16T11:41:18.538Z,41.96
2023-03-16T11:42:17.584Z,40.55
2023-03-16T11:43:17.573Z,40.53
2023-03-16T11:44:17.507Z,39.81
2023-03-16T11:45:18.511Z,40.42
2023-03-16T11:46:17.592Z,41.14
2023-03-16T11:47:18.487Z,41.44
2023-03-16T11:48:18.468Z,41.33
2023-03-16T11:49:17.484Z,40.32
2023-03-16T11:50:17.525Z,40.81
2023-03-16T11:51:17.470Z,41.42
2023-03-16T11:52:17.474Z,41.12
2023-03-16T11:53:17.429Z,40.00
2023-03-16T11:54:17.416Z,40.30
2023-03-16T11:55:18.416Z,39.61
2023-03-16T11:56:18.399Z,39.51
2023-03-16T11:57:17.410Z,39.51
2023-03-16T11:58:17.872Z,40.03
2023-03-16T11:59:17.390Z,39.62
2023-03-16T12:00:17.349Z,39.73
2023-03-16T12:01:17.358Z,39.12
2023-03-16T12:02:17.473Z,38.79
2023-03-16T12:03:17.418Z,39.20
2023-03-16T12:04:18.422Z,39.18
2023-03-16T12:05:18.308Z,39.28
2023-03-16T12:06:23.174Z,39.69
2023-03-16T12:07:18.270Z,39.81
2023-03-16T12:08:17.851Z,38.81
2023-03-16T12:09:18.279Z,38.79
2023-03-16T12:10:17.275Z,38.81
2023-03-16T12:11:17.214Z,39.32
2023-03-16T12:12:17.260Z,39.61
2023-03-16T12:13:17.191Z,38.08
2023-03-16T12:14:17.204Z,38.18
2023-03-16T12:15:18.158Z,38.59
2023-03-16T12:16:17.210Z,38.28
2023-03-16T12:17:17.156Z,38.57
2023-03-16T12:18:17.157Z,37.35
2023-03-16T12:19:17.165Z,38.18
2023-03-16T12:20:17.135Z,38.06
2023-03-16T12:21:18.127Z,37.85
2023-03-16T12:22:17.138Z,38.78
2023-03-16T12:23:17.081Z,38.78
2023-03-16T12:24:17.069Z,38.57
2023-03-16T12:25:17.076Z,38.26
2023-03-16T12:26:17.065Z,38.06
2023-03-16T12:27:17.072Z,37.96
2023-03-16T12:28:17.079Z,37.53
2023-03-16T12:29:17.020Z,36.92
2023-03-16T12:30:17.008Z,36.92
2023-03-16T12:31:17.124Z,38.46
2023-03-16T12:32:17.973Z,38.37
2023-03-16T12:33:17.004Z,38.26
2023-03-16T12:34:17.050Z,36.83
2023-03-16T12:35:16.978Z,36.94
2023-03-16T12:36:17.949Z,37.65
2023-03-16T12:37:16.973Z,38.26
2023-03-16T12:38:16.935Z,37.96
2023-03-16T12:39:16.930Z,38.65
2023-03-16T12:40:16.921Z,38.57
2023-03-16T12:41:18.092Z,38.67
2023-03-16T12:42:16.925Z,39.92
2023-03-16T12:43:16.872Z,38.67
2023-03-16T12:44:16.880Z,38.46
2023-03-16T12:45:17.917Z,38.85
2023-03-16T12:46:16.941Z,37.94
2023-03-16T12:47:16.850Z,38.35
2023-03-16T12:48:16.853Z,37.94
2023-03-16T12:49:16.805Z,38.57
2023-03-16T12:50:16.806Z,39.39
2023-03-16T12:51:16.763Z,39.81
2023-03-16T12:52:16.770Z,39.71